sensor_id;sensor_type;location;lat;lon;timestamp;P1;durP1;ratioP1;P2;durP2;ratioP2
73454;SDS011;61690;51.824;6.306;2023-05-10T00:00:41;6.83;;;2.60;;
73454;SDS011;61690;51.824;6.306;2023-05-10T00:03:06;6.93;;;2.50;;
73454;SDS011;61690;51.824;6.306;2023-05-10T00:05:33;6.87;;;2.70;;
73454;SDS011;61690;51.824;6.306;2023-05-10T00:07:58;6.13;;;2.80;;
73454;SDS011;61690;51.824;6.306;2023-05-10T00:10:23;6.67;;;2.73;;
73454;SDS011;61690;51.824;6.306;2023-05-10T00:12:50;7.07;;;2.90;;
73454;SDS011;61690;51.824;6.306;2023-05-10T00:15:15;6.77;;;2.73;;
73454;SDS011;61690;51.824;6.306;2023-05-10T00:17:40;6.73;;;2.70;;
73454;SDS011;61690;51.824;6.306;2023-05-10T00:20:06;6.27;;;2.77;;
73454;SDS011;61690;51.824;6.306;2023-05-10T00:22:33;6.30;;;2.40;;
73454;SDS011;61690;51.824;6.306;2023-05-10T00:24:58;6.70;;;2.70;;
73454;SDS011;61690;51.824;6.306;2023-05-10T00:27:23;7.23;;;2.50;;
73454;SDS011;61690;51.824;6.306;2023-05-10T00:29:50;6.00;;;2.57;;
73454;SDS011;61690;51.824;6.306;2023-05-10T00:32:16;6.38;;;3.05;;
73454;SDS011;61690;51.824;6.306;2023-05-10T00:34:42;6.03;;;2.60;;
73454;SDS011;61690;51.824;6.306;2023-05-10T00:37:07;6.93;;;2.63;;
73454;SDS011;61690;51.824;6.306;2023-05-10T00:39:32;7.47;;;2.67;;
73454;SDS011;61690;51.824;6.306;2023-05-10T00:41:57;6.90;;;2.90;;
73454;SDS011;61690;51.824;6.306;2023-05-10T00:44:23;6.67;;;2.80;;
73454;SDS011;61690;51.824;6.306;2023-05-10T00:46:48;6.90;;;2.50;;
73454;SDS011;61690;51.824;6.306;2023-05-10T00:49:14;8.73;;;3.00;;
73454;SDS011;61690;51.824;6.306;2023-05-10T00:51:40;6.03;;;2.80;;
73454;SDS011;61690;51.824;6.306;2023-05-10T00:54:07;6.80;;;2.70;;
73454;SDS011;61690;51.824;6.306;2023-05-10T00:56:36;7.18;;;2.70;;
73454;SDS011;61690;51.824;6.306;2023-05-10T00:59:01;6.35;;;2.70;;
73454;SDS011;61690;51.824;6.306;2023-05-10T01:01:28;7.07;;;2.90;;
73454;SDS011;61690;51.824;6.306;2023-05-10T01:03:54;7.95;;;2.78;;
73454;SDS011;61690;51.824;6.306;2023-05-10T01:06:20;8.23;;;3.15;;
73454;SDS011;61690;51.824;6.306;2023-05-10T01:08:48;7.60;;;2.70;;
73454;SDS011;61690;51.824;6.306;2023-05-10T01:11:13;6.47;;;3.00;;
73454;SDS011;61690;51.824;6.306;2023-05-10T01:13:41;8.60;;;3.17;;
73454;SDS011;61690;51.824;6.306;2023-05-10T01:16:07;7.40;;;2.70;;
73454;SDS011;61690;51.824;6.306;2023-05-10T01:18:37;8.25;;;3.22;;
73454;SDS011;61690;51.824;6.306;2023-05-10T01:21:07;7.37;;;3.00;;
73454;SDS011;61690;51.824;6.306;2023-05-10T01:23:49;7.53;;;2.92;;
73454;SDS011;61690;51.824;6.306;2023-05-10T01:32:04;7.30;;;2.90;;
73454;SDS011;61690;51.824;6.306;2023-05-10T01:40:29;7.57;;;2.83;;
73454;SDS011;61690;51.824;6.306;2023-05-10T01:43:02;8.05;;;2.85;;
73454;SDS011;61690;51.824;6.306;2023-05-10T01:45:31;6.82;;;3.08;;
73454;SDS011;61690;51.824;6.306;2023-05-10T01:48:06;6.77;;;2.90;;
73454;SDS011;61690;51.824;6.306;2023-05-10T01:50:34;8.02;;;2.92;;
73454;SDS011;61690;51.824;6.306;2023-05-10T01:53:01;7.55;;;2.97;;
73454;SDS011;61690;51.824;6.306;2023-05-10T01:55:32;7.00;;;3.15;;
73454;SDS011;61690;51.824;6.306;2023-05-10T01:58:10;8.35;;;3.00;;
73454;SDS011;61690;51.824;6.306;2023-05-10T02:00:42;6.50;;;2.53;;
73454;SDS011;61690;51.824;6.306;2023-05-10T02:03:09;8.73;;;3.05;;
73454;SDS011;61690;51.824;6.306;2023-05-10T02:05:36;7.25;;;3.20;;
73454;SDS011;61690;51.824;6.306;2023-05-10T02:08:02;7.78;;;3.20;;
73454;SDS011;61690;51.824;6.306;2023-05-10T02:10:32;7.10;;;3.20;;
73454;SDS011;61690;51.824;6.306;2023-05-10T02:12:59;7.53;;;3.10;;
73454;SDS011;61690;51.824;6.306;2023-05-10T02:15:25;7.47;;;2.90;;
73454;SDS011;61690;51.824;6.306;2023-05-10T02:17:52;8.50;;;3.10;;
73454;SDS011;61690;51.824;6.306;2023-05-10T02:20:20;7.07;;;2.95;;
73454;SDS011;61690;51.824;6.306;2023-05-10T02:22:47;7.90;;;3.42;;
73454;SDS011;61690;51.824;6.306;2023-05-10T02:25:16;8.33;;;3.03;;
73454;SDS011;61690;51.824;6.306;2023-05-10T02:27:44;8.63;;;3.45;;
73454;SDS011;61690;51.824;6.306;2023-05-10T02:30:10;9.20;;;3.40;;
73454;SDS011;61690;51.824;6.306;2023-05-10T02:32:36;7.00;;;3.00;;
73454;SDS011;61690;51.824;6.306;2023-05-10T02:35:02;7.72;;;3.20;;
73454;SDS011;61690;51.824;6.306;2023-05-10T02:37:28;8.60;;;3.10;;
73454;SDS011;61690;51.824;6.306;2023-05-10T02:39:55;7.28;;;3.10;;
73454;SDS011;61690;51.824;6.306;2023-05-10T02:42:26;7.63;;;3.10;;
73454;SDS011;61690;51.824;6.306;2023-05-10T02:44:53;8.02;;;3.30;;
73454;SDS011;61690;51.824;6.306;2023-05-10T02:47:21;7.53;;;3.25;;
73454;SDS011;61690;51.824;6.306;2023-05-10T02:49:47;7.20;;;3.00;;
73454;SDS011;61690;51.824;6.306;2023-05-10T02:52:16;9.52;;;3.50;;
73454;SDS011;61690;51.824;6.306;2023-05-10T02:54:48;8.30;;;3.22;;
73454;SDS011;61690;51.824;6.306;2023-05-10T02:57:16;7.77;;;3.40;;
73454;SDS011;61690;51.824;6.306;2023-05-10T02:59:44;8.63;;;3.40;;
73454;SDS011;61690;51.824;6.306;2023-05-10T03:02:10;9.25;;;3.80;;
73454;SDS011;61690;51.824;6.306;2023-05-10T03:04:38;9.18;;;3.55;;
73454;SDS011;61690;51.824;6.306;2023-05-10T03:07:05;7.93;;;3.13;;
73454;SDS011;61690;51.824;6.306;2023-05-10T03:09:32;8.05;;;3.30;;
73454;SDS011;61690;51.824;6.306;2023-05-10T03:12:07;7.50;;;2.97;;
73454;SDS011;61690;51.824;6.306;2023-05-10T03:14:48;8.90;;;3.30;;
73454;SDS011;61690;51.824;6.306;2023-05-10T03:17:29;8.25;;;3.05;;
73454;SDS011;61690;51.824;6.306;2023-05-10T03:19:55;7.65;;;3.00;;
73454;SDS011;61690;51.824;6.306;2023-05-10T03:22:26;7.45;;;3.10;;
73454;SDS011;61690;51.824;6.306;2023-05-10T03:24:57;7.90;;;3.10;;
73454;SDS011;61690;51.824;6.306;2023-05-10T03:27:23;7.53;;;3.40;;
73454;SDS011;61690;51.824;6.306;2023-05-10T03:29:51;8.05;;;3.20;;
73454;SDS011;61690;51.824;6.306;2023-05-10T03:32:18;8.50;;;3.47;;
73454;SDS011;61690;51.824;6.306;2023-05-10T03:34:43;8.30;;;3.23;;
73454;SDS011;61690;51.824;6.306;2023-05-10T03:37:10;9.40;;;3.67;;
73454;SDS011;61690;51.824;6.306;2023-05-10T03:39:36;8.15;;;3.47;;
73454;SDS011;61690;51.824;6.306;2023-05-10T03:42:01;7.97;;;3.20;;
73454;SDS011;61690;51.824;6.306;2023-05-10T03:44:26;8.38;;;3.50;;
73454;SDS011;61690;51.824;6.306;2023-05-10T03:46:52;8.50;;;3.30;;
73454;SDS011;61690;51.824;6.306;2023-05-10T03:49:17;8.30;;;3.37;;
73454;SDS011;61690;51.824;6.306;2023-05-10T03:51:44;8.77;;;3.00;;
73454;SDS011;61690;51.824;6.306;2023-05-10T03:54:09;8.30;;;3.28;;
73454;SDS011;61690;51.824;6.306;2023-05-10T03:56:35;8.23;;;3.40;;
73454;SDS011;61690;51.824;6.306;2023-05-10T03:59:00;9.87;;;3.80;;
73454;SDS011;61690;51.824;6.306;2023-05-10T04:01:25;9.75;;;3.55;;
73454;SDS011;61690;51.824;6.306;2023-05-10T04:03:52;9.50;;;3.90;;
73454;SDS011;61690;51.824;6.306;2023-05-10T04:06:18;9.13;;;3.70;;
73454;SDS011;61690;51.824;6.306;2023-05-10T04:08:45;8.75;;;3.50;;
73454;SDS011;61690;51.824;6.306;2023-05-10T04:11:11;8.75;;;3.53;;
73454;SDS011;61690;51.824;6.306;2023-05-10T04:13:38;8.32;;;3.50;;
73454;SDS011;61690;51.824;6.306;2023-05-10T04:16:08;10.15;;;3.70;;
73454;SDS011;61690;51.824;6.306;2023-05-10T04:18:34;8.90;;;3.43;;
73454;SDS011;61690;51.824;6.306;2023-05-10T04:21:00;8.68;;;3.58;;
73454;SDS011;61690;51.824;6.306;2023-05-10T04:23:26;9.17;;;3.87;;
73454;SDS011;61690;51.824;6.306;2023-05-10T04:25:52;9.23;;;4.07;;
73454;SDS011;61690;51.824;6.306;2023-05-10T04:28:18;9.00;;;3.70;;
73454;SDS011;61690;51.824;6.306;2023-05-10T04:30:43;11.37;;;3.77;;
73454;SDS011;61690;51.824;6.306;2023-05-10T04:33:08;9.00;;;3.70;;
73454;SDS011;61690;51.824;6.306;2023-05-10T04:35:34;9.73;;;3.83;;
73454;SDS011;61690;51.824;6.306;2023-05-10T04:38:01;8.48;;;3.83;;
73454;SDS011;61690;51.824;6.306;2023-05-10T04:40:26;8.10;;;3.70;;
73454;SDS011;61690;51.824;6.306;2023-05-10T04:42:52;8.93;;;3.63;;
73454;SDS011;61690;51.824;6.306;2023-05-10T04:45:17;8.47;;;3.40;;
73454;SDS011;61690;51.824;6.306;2023-05-10T04:47:42;9.53;;;3.87;;
73454;SDS011;61690;51.824;6.306;2023-05-10T04:50:09;10.80;;;3.60;;
73454;SDS011;61690;51.824;6.306;2023-05-10T04:52:35;11.87;;;4.17;;
73454;SDS011;61690;51.824;6.306;2023-05-10T04:55:02;14.35;;;4.38;;
73454;SDS011;61690;51.824;6.306;2023-05-10T04:57:29;13.37;;;5.60;;
73454;SDS011;61690;51.824;6.306;2023-05-10T04:59:55;13.73;;;5.68;;
73454;SDS011;61690;51.824;6.306;2023-05-10T05:02:20;14.83;;;6.27;;
73454;SDS011;61690;51.824;6.306;2023-05-10T05:04:48;15.25;;;6.40;;
73454;SDS011;61690;51.824;6.306;2023-05-10T05:07:13;15.23;;;6.25;;
73454;SDS011;61690;51.824;6.306;2023-05-10T05:09:38;15.93;;;6.47;;
73454;SDS011;61690;51.824;6.306;2023-05-10T05:12:04;15.10;;;6.07;;
73454;SDS011;61690;51.824;6.306;2023-05-10T05:14:29;15.90;;;5.87;;
73454;SDS011;61690;51.824;6.306;2023-05-10T05:16:54;13.30;;;6.20;;
73454;SDS011;61690;51.824;6.306;2023-05-10T05:19:21;15.77;;;6.25;;
73454;SDS011;61690;51.824;6.306;2023-05-10T05:21:46;21.03;;;7.17;;
73454;SDS011;61690;51.824;6.306;2023-05-10T05:24:12;14.57;;;6.22;;
73454;SDS011;61690;51.824;6.306;2023-05-10T05:26:37;14.90;;;6.13;;
73454;SDS011;61690;51.824;6.306;2023-05-10T05:29:03;16.63;;;6.30;;
73454;SDS011;61690;51.824;6.306;2023-05-10T05:31:28;15.47;;;6.17;;
73454;SDS011;61690;51.824;6.306;2023-05-10T05:33:54;13.93;;;6.03;;
73454;SDS011;61690;51.824;6.306;2023-05-10T05:36:19;14.70;;;5.70;;
73454;SDS011;61690;51.824;6.306;2023-05-10T05:38:44;13.07;;;6.10;;
73454;SDS011;61690;51.824;6.306;2023-05-10T05:41:10;13.60;;;6.37;;
73454;SDS011;61690;51.824;6.306;2023-05-10T05:43:35;13.73;;;6.10;;
73454;SDS011;61690;51.824;6.306;2023-05-10T05:46:00;14.93;;;6.10;;
73454;SDS011;61690;51.824;6.306;2023-05-10T05:48:25;14.57;;;5.60;;
73454;SDS011;61690;51.824;6.306;2023-05-10T05:50:58;13.93;;;6.30;;
73454;SDS011;61690;51.824;6.306;2023-05-10T05:53:24;14.90;;;6.10;;
73454;SDS011;61690;51.824;6.306;2023-05-10T05:55:57;12.93;;;6.03;;
73454;SDS011;61690;51.824;6.306;2023-05-10T05:58:23;15.70;;;5.55;;
73454;SDS011;61690;51.824;6.306;2023-05-10T06:00:49;13.00;;;5.82;;
73454;SDS011;61690;51.824;6.306;2023-05-10T06:03:19;12.93;;;6.05;;
73454;SDS011;61690;51.824;6.306;2023-05-10T06:05:45;13.27;;;5.77;;
73454;SDS011;61690;51.824;6.306;2023-05-10T06:08:17;12.98;;;6.10;;
73454;SDS011;61690;51.824;6.306;2023-05-10T06:10:43;12.53;;;5.60;;
73454;SDS011;61690;51.824;6.306;2023-05-10T06:13:09;13.85;;;5.97;;
73454;SDS011;61690;51.824;6.306;2023-05-10T06:15:37;14.40;;;6.05;;
73454;SDS011;61690;51.824;6.306;2023-05-10T06:18:02;13.20;;;5.77;;
73454;SDS011;61690;51.824;6.306;2023-05-10T06:20:28;14.00;;;5.93;;
73454;SDS011;61690;51.824;6.306;2023-05-10T06:22:54;14.30;;;6.20;;
73454;SDS011;61690;51.824;6.306;2023-05-10T06:25:20;12.93;;;5.72;;
73454;SDS011;61690;51.824;6.306;2023-05-10T06:27:46;12.30;;;5.83;;
73454;SDS011;61690;51.824;6.306;2023-05-10T06:30:11;13.15;;;5.70;;
73454;SDS011;61690;51.824;6.306;2023-05-10T06:32:38;12.83;;;5.93;;
73454;SDS011;61690;51.824;6.306;2023-05-10T06:35:04;16.80;;;5.93;;
73454;SDS011;61690;51.824;6.306;2023-05-10T06:37:30;13.98;;;5.38;;
73454;SDS011;61690;51.824;6.306;2023-05-10T06:39:56;13.77;;;5.50;;
73454;SDS011;61690;51.824;6.306;2023-05-10T06:42:21;14.67;;;5.30;;
73454;SDS011;61690;51.824;6.306;2023-05-10T06:44:46;15.20;;;5.80;;
73454;SDS011;61690;51.824;6.306;2023-05-10T06:47:11;13.27;;;5.20;;
73454;SDS011;61690;51.824;6.306;2023-05-10T06:49:37;11.93;;;5.63;;
73454;SDS011;61690;51.824;6.306;2023-05-10T06:52:02;13.25;;;5.70;;
73454;SDS011;61690;51.824;6.306;2023-05-10T06:54:27;13.10;;;5.17;;
73454;SDS011;61690;51.824;6.306;2023-05-10T06:56:53;12.07;;;5.50;;
73454;SDS011;61690;51.824;6.306;2023-05-10T06:59:19;12.98;;;5.30;;
73454;SDS011;61690;51.824;6.306;2023-05-10T07:01:46;12.97;;;5.53;;
73454;SDS011;61690;51.824;6.306;2023-05-10T07:04:11;12.60;;;5.60;;
73454;SDS011;61690;51.824;6.306;2023-05-10T07:06:37;13.32;;;5.25;;
73454;SDS011;61690;51.824;6.306;2023-05-10T07:09:03;13.70;;;5.27;;
73454;SDS011;61690;51.824;6.306;2023-05-10T07:11:28;13.07;;;6.00;;
73454;SDS011;61690;51.824;6.306;2023-05-10T07:13:53;11.80;;;4.77;;
73454;SDS011;61690;51.824;6.306;2023-05-10T07:16:18;12.90;;;5.33;;
73454;SDS011;61690;51.824;6.306;2023-05-10T07:18:44;11.83;;;5.80;;
73454;SDS011;61690;51.824;6.306;2023-05-10T07:21:09;12.40;;;5.70;;
73454;SDS011;61690;51.824;6.306;2023-05-10T07:23:35;12.13;;;5.53;;
73454;SDS011;61690;51.824;6.306;2023-05-10T07:26:00;13.57;;;5.73;;
73454;SDS011;61690;51.824;6.306;2023-05-10T07:28:27;11.80;;;5.40;;
73454;SDS011;61690;51.824;6.306;2023-05-10T07:30:52;11.50;;;5.17;;
73454;SDS011;61690;51.824;6.306;2023-05-10T07:33:18;12.70;;;5.23;;
73454;SDS011;61690;51.824;6.306;2023-05-10T07:35:43;11.38;;;5.68;;
73454;SDS011;61690;51.824;6.306;2023-05-10T07:38:09;12.05;;;5.40;;
73454;SDS011;61690;51.824;6.306;2023-05-10T07:40:38;12.20;;;5.70;;
73454;SDS011;61690;51.824;6.306;2023-05-10T07:43:04;12.00;;;5.15;;
73454;SDS011;61690;51.824;6.306;2023-05-10T07:45:30;10.20;;;5.17;;
73454;SDS011;61690;51.824;6.306;2023-05-10T07:47:57;12.70;;;5.13;;
73454;SDS011;61690;51.824;6.306;2023-05-10T07:50:24;11.85;;;5.45;;
73454;SDS011;61690;51.824;6.306;2023-05-10T07:52:49;10.67;;;5.13;;
73454;SDS011;61690;51.824;6.306;2023-05-10T07:55:18;11.55;;;4.85;;
73454;SDS011;61690;51.824;6.306;2023-05-10T07:57:43;11.80;;;5.20;;
73454;SDS011;61690;51.824;6.306;2023-05-10T08:00:09;10.90;;;4.90;;
73454;SDS011;61690;51.824;6.306;2023-05-10T08:02:38;11.35;;;5.28;;
73454;SDS011;61690;51.824;6.306;2023-05-10T08:05:03;14.07;;;5.57;;
73454;SDS011;61690;51.824;6.306;2023-05-10T08:07:30;14.70;;;5.28;;
73454;SDS011;61690;51.824;6.306;2023-05-10T08:09:56;9.77;;;4.60;;
73454;SDS011;61690;51.824;6.306;2023-05-10T08:12:22;13.05;;;5.38;;
73454;SDS011;61690;51.824;6.306;2023-05-10T08:14:47;14.73;;;5.10;;
73454;SDS011;61690;51.824;6.306;2023-05-10T08:17:14;14.10;;;5.17;;
73454;SDS011;61690;51.824;6.306;2023-05-10T08:19:40;11.32;;;4.85;;
73454;SDS011;61690;51.824;6.306;2023-05-10T08:22:05;14.37;;;5.10;;
73454;SDS011;61690;51.824;6.306;2023-05-10T08:24:31;16.97;;;5.17;;
73454;SDS011;61690;51.824;6.306;2023-05-10T08:26:56;12.07;;;4.83;;
73454;SDS011;61690;51.824;6.306;2023-05-10T08:29:22;10.82;;;5.00;;
73454;SDS011;61690;51.824;6.306;2023-05-10T08:31:47;12.23;;;5.10;;
73454;SDS011;61690;51.824;6.306;2023-05-10T08:34:12;11.33;;;4.97;;
73454;SDS011;61690;51.824;6.306;2023-05-10T08:36:38;11.93;;;4.70;;
73454;SDS011;61690;51.824;6.306;2023-05-10T08:39:04;14.43;;;5.47;;
73454;SDS011;61690;51.824;6.306;2023-05-10T08:41:31;12.10;;;5.22;;
73454;SDS011;61690;51.824;6.306;2023-05-10T08:43:58;12.30;;;5.05;;
73454;SDS011;61690;51.824;6.306;2023-05-10T08:46:26;11.52;;;5.35;;
73454;SDS011;61690;51.824;6.306;2023-05-10T08:48:53;13.18;;;5.00;;
73454;SDS011;61690;51.824;6.306;2023-05-10T08:51:22;10.97;;;5.10;;
73454;SDS011;61690;51.824;6.306;2023-05-10T08:53:51;13.32;;;5.10;;
73454;SDS011;61690;51.824;6.306;2023-05-10T08:56:17;11.65;;;5.25;;
73454;SDS011;61690;51.824;6.306;2023-05-10T08:58:43;11.57;;;4.93;;
73454;SDS011;61690;51.824;6.306;2023-05-10T09:01:09;12.63;;;5.22;;
73454;SDS011;61690;51.824;6.306;2023-05-10T09:03:35;11.43;;;4.78;;
73454;SDS011;61690;51.824;6.306;2023-05-10T09:06:03;10.40;;;4.83;;
73454;SDS011;61690;51.824;6.306;2023-05-10T09:08:30;9.80;;;4.70;;
73454;SDS011;61690;51.824;6.306;2023-05-10T09:10:56;11.95;;;5.10;;
73454;SDS011;61690;51.824;6.306;2023-05-10T09:13:22;10.90;;;5.03;;
73454;SDS011;61690;51.824;6.306;2023-05-10T09:15:48;10.98;;;4.80;;
73454;SDS011;61690;51.824;6.306;2023-05-10T09:18:14;12.93;;;5.27;;
73454;SDS011;61690;51.824;6.306;2023-05-10T09:20:39;11.77;;;4.80;;
73454;SDS011;61690;51.824;6.306;2023-05-10T09:23:06;10.27;;;4.93;;
73454;SDS011;61690;51.824;6.306;2023-05-10T09:25:31;11.23;;;5.38;;
73454;SDS011;61690;51.824;6.306;2023-05-10T09:27:58;12.75;;;4.93;;
73454;SDS011;61690;51.824;6.306;2023-05-10T09:30:25;11.32;;;5.47;;
73454;SDS011;61690;51.824;6.306;2023-05-10T09:32:52;12.70;;;5.40;;
73454;SDS011;61690;51.824;6.306;2023-05-10T09:35:19;11.53;;;5.03;;
73454;SDS011;61690;51.824;6.306;2023-05-10T09:37:47;10.57;;;5.00;;
73454;SDS011;61690;51.824;6.306;2023-05-10T09:40:16;9.57;;;4.85;;
73454;SDS011;61690;51.824;6.306;2023-05-10T09:42:43;10.27;;;4.93;;
73454;SDS011;61690;51.824;6.306;2023-05-10T09:45:26;10.63;;;4.93;;
73454;SDS011;61690;51.824;6.306;2023-05-10T09:47:54;11.70;;;4.80;;
73454;SDS011;61690;51.824;6.306;2023-05-10T09:50:21;11.68;;;5.10;;
73454;SDS011;61690;51.824;6.306;2023-05-10T09:52:48;11.32;;;4.80;;
73454;SDS011;61690;51.824;6.306;2023-05-10T09:55:19;11.32;;;4.38;;
73454;SDS011;61690;51.824;6.306;2023-05-10T09:57:46;9.77;;;4.45;;
73454;SDS011;61690;51.824;6.306;2023-05-10T10:00:16;12.20;;;4.93;;
73454;SDS011;61690;51.824;6.306;2023-05-10T10:02:54;13.13;;;4.90;;
73454;SDS011;61690;51.824;6.306;2023-05-10T10:05:20;10.88;;;4.45;;
73454;SDS011;61690;51.824;6.306;2023-05-10T10:07:53;10.68;;;4.70;;
73454;SDS011;61690;51.824;6.306;2023-05-10T10:10:20;12.00;;;4.80;;
73454;SDS011;61690;51.824;6.306;2023-05-10T10:12:45;10.10;;;4.47;;
73454;SDS011;61690;51.824;6.306;2023-05-10T10:15:11;11.23;;;4.60;;
73454;SDS011;61690;51.824;6.306;2023-05-10T10:17:36;10.40;;;4.17;;
73454;SDS011;61690;51.824;6.306;2023-05-10T10:20:04;10.30;;;4.40;;
73454;SDS011;61690;51.824;6.306;2023-05-10T10:22:30;10.75;;;4.38;;
73454;SDS011;61690;51.824;6.306;2023-05-10T10:24:59;10.13;;;4.40;;
73454;SDS011;61690;51.824;6.306;2023-05-10T10:27:34;8.80;;;4.13;;
73454;SDS011;61690;51.824;6.306;2023-05-10T10:30:18;12.60;;;4.90;;
73454;SDS011;61690;51.824;6.306;2023-05-10T10:35:31;9.90;;;4.40;;
73454;SDS011;61690;51.824;6.306;2023-05-10T10:37:58;9.40;;;4.40;;
73454;SDS011;61690;51.824;6.306;2023-05-10T10:40:26;11.38;;;4.18;;
73454;SDS011;61690;51.824;6.306;2023-05-10T10:42:53;10.75;;;4.50;;
73454;SDS011;61690;51.824;6.306;2023-05-10T10:45:20;9.57;;;4.90;;
73454;SDS011;61690;51.824;6.306;2023-05-10T10:47:47;10.75;;;4.60;;
73454;SDS011;61690;51.824;6.306;2023-05-10T10:50:13;8.97;;;4.07;;
73454;SDS011;61690;51.824;6.306;2023-05-10T10:52:45;12.07;;;4.25;;
73454;SDS011;61690;51.824;6.306;2023-05-10T10:55:15;8.93;;;4.40;;
73454;SDS011;61690;51.824;6.306;2023-05-10T10:57:48;7.88;;;4.40;;
73454;SDS011;61690;51.824;6.306;2023-05-10T11:02:55;8.52;;;4.25;;
73454;SDS011;61690;51.824;6.306;2023-05-10T11:10:35;8.50;;;4.18;;
73454;SDS011;61690;51.824;6.306;2023-05-10T11:15:35;9.88;;;4.57;;
73454;SDS011;61690;51.824;6.306;2023-05-10T11:18:17;10.10;;;4.17;;
73454;SDS011;61690;51.824;6.306;2023-05-10T11:20:44;10.02;;;4.15;;
73454;SDS011;61690;51.824;6.306;2023-05-10T11:23:15;8.27;;;4.15;;
73454;SDS011;61690;51.824;6.306;2023-05-10T11:25:42;8.98;;;4.20;;
73454;SDS011;61690;51.824;6.306;2023-05-10T11:28:09;9.85;;;4.60;;
73454;SDS011;61690;51.824;6.306;2023-05-10T11:30:36;8.93;;;4.47;;
73454;SDS011;61690;51.824;6.306;2023-05-10T11:33:04;8.32;;;3.92;;
73454;SDS011;61690;51.824;6.306;2023-05-10T11:35:31;8.43;;;3.97;;
73454;SDS011;61690;51.824;6.306;2023-05-10T11:38:04;9.90;;;4.43;;
73454;SDS011;61690;51.824;6.306;2023-05-10T11:40:30;8.02;;;4.38;;
73454;SDS011;61690;51.824;6.306;2023-05-10T11:42:56;9.97;;;4.07;;
73454;SDS011;61690;51.824;6.306;2023-05-10T11:45:23;7.90;;;4.33;;
73454;SDS011;61690;51.824;6.306;2023-05-10T11:47:49;7.57;;;4.35;;
73454;SDS011;61690;51.824;6.306;2023-05-10T11:50:15;9.03;;;4.27;;
73454;SDS011;61690;51.824;6.306;2023-05-10T11:52:40;7.55;;;3.95;;
73454;SDS011;61690;51.824;6.306;2023-05-10T11:55:07;7.87;;;4.30;;
73454;SDS011;61690;51.824;6.306;2023-05-10T11:57:33;7.95;;;4.10;;
73454;SDS011;61690;51.824;6.306;2023-05-10T11:59:59;8.83;;;4.10;;
73454;SDS011;61690;51.824;6.306;2023-05-10T12:02:28;8.93;;;4.10;;
73454;SDS011;61690;51.824;6.306;2023-05-10T12:04:55;8.87;;;4.27;;
73454;SDS011;61690;51.824;6.306;2023-05-10T12:07:21;7.95;;;3.95;;
73454;SDS011;61690;51.824;6.306;2023-05-10T12:10:05;8.27;;;4.13;;
73454;SDS011;61690;51.824;6.306;2023-05-10T12:12:48;7.78;;;4.20;;
73454;SDS011;61690;51.824;6.306;2023-05-10T12:15:18;7.28;;;3.97;;
73454;SDS011;61690;51.824;6.306;2023-05-10T12:17:45;8.52;;;4.55;;
73454;SDS011;61690;51.824;6.306;2023-05-10T12:20:18;9.43;;;4.07;;
73454;SDS011;61690;51.824;6.306;2023-05-10T12:22:55;8.60;;;4.22;;
73454;SDS011;61690;51.824;6.306;2023-05-10T12:25:23;8.73;;;4.32;;
73454;SDS011;61690;51.824;6.306;2023-05-10T12:27:53;8.85;;;4.60;;
73454;SDS011;61690;51.824;6.306;2023-05-10T12:30:24;8.10;;;4.40;;
73454;SDS011;61690;51.824;6.306;2023-05-10T12:32:53;8.87;;;4.10;;
73454;SDS011;61690;51.824;6.306;2023-05-10T12:35:24;8.68;;;4.35;;
73454;SDS011;61690;51.824;6.306;2023-05-10T12:37:52;9.07;;;4.13;;
73454;SDS011;61690;51.824;6.306;2023-05-10T12:40:19;8.18;;;4.10;;
73454;SDS011;61690;51.824;6.306;2023-05-10T12:42:47;11.75;;;5.03;;
73454;SDS011;61690;51.824;6.306;2023-05-10T12:45:13;12.63;;;5.30;;
73454;SDS011;61690;51.824;6.306;2023-05-10T12:47:39;13.60;;;5.00;;
73454;SDS011;61690;51.824;6.306;2023-05-10T12:50:05;12.10;;;5.00;;
73454;SDS011;61690;51.824;6.306;2023-05-10T12:52:30;12.05;;;5.13;;
73454;SDS011;61690;51.824;6.306;2023-05-10T12:54:57;12.02;;;5.80;;
73454;SDS011;61690;51.824;6.306;2023-05-10T12:57:23;14.30;;;5.95;;
73454;SDS011;61690;51.824;6.306;2023-05-10T12:59:48;11.40;;;5.87;;
73454;SDS011;61690;51.824;6.306;2023-05-10T13:02:14;12.43;;;6.20;;
73454;SDS011;61690;51.824;6.306;2023-05-10T13:04:40;12.93;;;5.63;;
73454;SDS011;61690;51.824;6.306;2023-05-10T13:07:06;11.43;;;5.40;;
73454;SDS011;61690;51.824;6.306;2023-05-10T13:09:32;11.27;;;5.45;;
73454;SDS011;61690;51.824;6.306;2023-05-10T13:11:57;11.40;;;5.70;;
73454;SDS011;61690;51.824;6.306;2023-05-10T13:14:23;10.97;;;4.73;;
73454;SDS011;61690;51.824;6.306;2023-05-10T13:16:48;9.65;;;4.75;;
73454;SDS011;61690;51.824;6.306;2023-05-10T13:19:14;11.53;;;4.43;;
73454;SDS011;61690;51.824;6.306;2023-05-10T13:21:41;9.52;;;4.90;;
73454;SDS011;61690;51.824;6.306;2023-05-10T13:24:08;9.40;;;4.40;;
73454;SDS011;61690;51.824;6.306;2023-05-10T13:26:33;9.18;;;4.30;;
73454;SDS011;61690;51.824;6.306;2023-05-10T13:28:58;8.57;;;4.17;;
73454;SDS011;61690;51.824;6.306;2023-05-10T13:31:24;11.10;;;4.17;;
73454;SDS011;61690;51.824;6.306;2023-05-10T13:33:50;8.45;;;4.20;;
73454;SDS011;61690;51.824;6.306;2023-05-10T13:36:17;10.63;;;4.40;;
73454;SDS011;61690;51.824;6.306;2023-05-10T13:38:42;8.38;;;3.88;;
73454;SDS011;61690;51.824;6.306;2023-05-10T13:41:07;7.30;;;3.63;;
73454;SDS011;61690;51.824;6.306;2023-05-10T13:43:33;7.80;;;3.80;;
73454;SDS011;61690;51.824;6.306;2023-05-10T13:45:59;9.23;;;4.03;;
73454;SDS011;61690;51.824;6.306;2023-05-10T13:48:24;7.97;;;3.93;;
73454;SDS011;61690;51.824;6.306;2023-05-10T13:50:50;8.38;;;3.85;;
73454;SDS011;61690;51.824;6.306;2023-05-10T13:53:16;9.33;;;3.70;;
73454;SDS011;61690;51.824;6.306;2023-05-10T13:55:41;7.88;;;3.67;;
73454;SDS011;61690;51.824;6.306;2023-05-10T13:58:07;9.07;;;3.93;;
73454;SDS011;61690;51.824;6.306;2023-05-10T14:00:33;8.73;;;3.83;;
73454;SDS011;61690;51.824;6.306;2023-05-10T14:02:59;9.88;;;3.90;;
73454;SDS011;61690;51.824;6.306;2023-05-10T14:05:24;8.03;;;4.23;;
73454;SDS011;61690;51.824;6.306;2023-05-10T14:07:49;8.13;;;3.80;;
73454;SDS011;61690;51.824;6.306;2023-05-10T14:10:15;9.73;;;3.95;;
73454;SDS011;61690;51.824;6.306;2023-05-10T14:12:41;7.33;;;3.37;;
73454;SDS011;61690;51.824;6.306;2023-05-10T14:15:06;8.03;;;3.87;;
73454;SDS011;61690;51.824;6.306;2023-05-10T14:17:36;9.00;;;3.42;;
73454;SDS011;61690;51.824;6.306;2023-05-10T14:20:01;6.37;;;3.33;;
73454;SDS011;61690;51.824;6.306;2023-05-10T14:22:27;9.35;;;3.92;;
73454;SDS011;61690;51.824;6.306;2023-05-10T14:24:53;8.47;;;3.70;;
73454;SDS011;61690;51.824;6.306;2023-05-10T14:27:18;8.83;;;3.63;;
73454;SDS011;61690;51.824;6.306;2023-05-10T14:29:45;9.57;;;3.92;;
73454;SDS011;61690;51.824;6.306;2023-05-10T14:32:11;8.07;;;3.70;;
73454;SDS011;61690;51.824;6.306;2023-05-10T14:34:37;9.00;;;3.40;;
73454;SDS011;61690;51.824;6.306;2023-05-10T14:37:02;8.13;;;3.77;;
73454;SDS011;61690;51.824;6.306;2023-05-10T14:39:27;6.50;;;3.50;;
73454;SDS011;61690;51.824;6.306;2023-05-10T14:41:55;7.28;;;3.50;;
73454;SDS011;61690;51.824;6.306;2023-05-10T14:44:21;7.72;;;3.25;;
73454;SDS011;61690;51.824;6.306;2023-05-10T14:46:47;9.57;;;3.67;;
73454;SDS011;61690;51.824;6.306;2023-05-10T14:49:13;9.05;;;3.50;;
73454;SDS011;61690;51.824;6.306;2023-05-10T14:51:38;12.23;;;3.90;;
73454;SDS011;61690;51.824;6.306;2023-05-10T14:54:04;9.93;;;3.40;;
73454;SDS011;61690;51.824;6.306;2023-05-10T14:56:29;8.47;;;3.40;;
73454;SDS011;61690;51.824;6.306;2023-05-10T14:58:55;7.88;;;3.38;;
73454;SDS011;61690;51.824;6.306;2023-05-10T15:01:20;8.20;;;3.60;;
73454;SDS011;61690;51.824;6.306;2023-05-10T15:03:46;7.03;;;3.40;;